Airfield :
LOGIN :

Register | Disclaimer

   EN    FR    IT 

 










Legend :    VFR   Marginal VFR   IFR   Intensive IFR   Very Intensive IFR
Visi :
Ceiling :
>= 8 km
>= 3000ft
5 to 8 km
1000 to 3000 ft
1500m to 5 km
500 to 1000 ft
800 to 1500m
200 to 500 ft
< 800m
< 200 ft
Symbols :   Thunderstorms  Fog  Heavy snow  Heavy precipitations  Wind > 20 kt
SIGMETs :     Misc.  Thunderstorms  Icing  Turbulence  Mountain Waves  Volcanic Ashes







- Airport Elevation : 364 ft
- Download approach charts


LFAQ - Albert Bray

CURRENT METAR :
  • 221900Z AUTO 36010KT CAVOK 15/07 Q1029

EXPIRED METARs :
  • 221830Z AUTO 01010KT CAVOK 16/07 Q1029
  • 221800Z AUTO 01013KT CAVOK 17/06 Q1029
  • 221730Z AUTO 01014KT 340V040 CAVOK 18/06 Q1029
  • 221700Z AUTO 02013KT CAVOK 18/07 Q1029 NOSIG
  • 221630Z AUTO 36013KT CAVOK 18/06 Q1029 NOSIG
  • 221600Z AUTO 35013KT 320V030 CAVOK 19/07 Q1029 NOSIG

TAF TAF LFAQ
Valid from the 22 at 15:00 until the 23 at 00:00 UTC


221400Z 2215/2224 36013KT CAVOK
BECMG 2219/2221 36003KT
No reported NOTAMs for that airfield.



MET'MAP, your aeronautical weather chart ! - Copyright ORBIFLY December 2007 - Disclaimer

ORBIFLY MET'MAP TEAM :

Programming & Development : Alexandra Zaïnal
Concept & Development : Baudouin d'Aumeries
Co-Development & Prog : Marc-Olivier Méhu
Technical & hardware support : Manuel Goepfert

Contact : metmap@orbifly.com




SOURCES & CREDITS :

   NOAA